メインページ
METAR-TAF:

METAR-TAF

空港 :

カラチ, パキスタン

ジンナー国際空港

緯度: 24-54N, 経度: 067-08E, 海抜: 21m

現時点の気象観測

当レポートは13分前の12:55(UTC)に作成
南西の風 7kt
気温 24°C
湿度 57%
気圧 1014 hPa
視程: 8000m

METAR: OPKC 241255Z 22007KT 8000 NSC 24/15 Q1014 NOSIG

時間: 18:08 (13:08 UTC)

予報

当レポートは9時間8分前の04:00(UTC)に作成
予報は24日の 06時(UTC)から 25日の 12時(UTC)まで有効
西/南西の風 5kt、最大15ktの突風を伴う
視程: 6000m
24日の 18時(UTC)から 24日の 20時(UTC)まで徐々に
西の風 6kt
視程: 4000m
煙霧
25日の 01時(UTC)から 25日の 05時(UTC)まで一時的に
変向風 3kt
視程: 2500m
時(UTC)から
南西の風 5kt、最大15ktの突風を伴う
視程: 6000m

TAF: OPKC 240400Z 2406/2512 25005G15KT 6000 NSC BECMG 2418/2420 27006KT 4000 HZ NSC TEMPO 2501/2505 VRB03KT 2500 FU NSC FM 250600 23005G15KT 6000 NSC

4,000以上の空港の気象観測と天気予報(METAR報とTAF報)

利用可能な観測所は地図上に黄色い丸と赤い丸で示す。

丸の上にカーソルを重ねると観測所名を参照できる。

次にクリックすると気象観測と天気予報を参照できる。

マップの切り替え:黒色「×」印の緑ボタンをクリックして拡大、「-」印の緑ボタンをクリックして縮小、緑色の三角印をクリックして隣りの地図に切り替え


METAR-TAF: